Thorntown, IN (46071)

9:31 PM EDT on October 01, 2014 (GMT -0400)
Ash Street | Change Station
CLOSE
Current Station
Personal Weather Station
Location: Jamestown, IN
Elevation: 974 ft
Nearby Weather Stations

Elev 974 ft 39.93 °N, 86.63 °W | Updated 37 seconds ago

Clear
Clear
64.1 °F
Feels Like 64.1 °F
N
0.0
Wind Variable Wind from NW
Gusts 2.0 mph

Today
High -- | Low -- °F
--% Chance of Precip.
Yesterday
High -- | Low -- °F
Precip. -- in
7:42 AM 7:28 PM
First Quarter, 53% visible
Pressure 29.97 in
Visibility 10.0 miles
Clouds Clear
Dew Point 57 °F
Humidity 77%
Rainfall -999.00 in
Snow Depth Not available.
UV 0 out of 12
Pollen 4.10 out of 12
Ozone Good
PM2.5 Good
Flu Activity Not available.
METAR KTYQ 020115Z AUTO 10005KT 10SM CLR 18/12 A2997 RMK AO2 T01800117

More Conditions Fewer Conditions

Pressure 29.97 in
Visibility 10.0 miles
Clouds Clear
Dew Point 57 °F
Humidity 77%
Rainfall -999.00 in
Snow Depth Not available.
UV 0 out of 12
Pollen 4.10 out of 12
Ozone Good
PM2.5 Good
Flu Activity Not available.
METAR KTYQ 020115Z AUTO 10005KT 10SM CLR 18/12 A2997 RMK AO2 T01800117

More Conditions Fewer Conditions

10-Day Weather Forecast

Almanac

Astronomy

Oct. 01, 2014 Rise Set
Actual Time 7:42 AM EDT 7:28 PM EDT
Civil Twilight 7:15 AM EDT 7:55 PM EDT
Nautical Twilight 6:44 AM EDT 8:27 PM EDT
Astronomical Twilight 6:12 AM EDT 8:58 PM EDT
Moon 2:43 PM EDT (10/1) No Moon Set
Length of Visible Light 12h 39m
Length of Day
11h 45m
Tomorrow will be 2m 37s shorter.
First Quarter, 53% of the Moon is Illuminated
Today
First Quarter
Oct 8
Full
Oct 15
Last Quarter
Oct 23
New
Oct 30
First Quarter

Today's Extremes

State Highs State Lows

Community

WunderPhotos

Upload Photos

1,758,112 photos uploaded!

WunderBlogs® & News

Nearby

Air Quality

  Air Quality AQ Index Pollutant
Yesterday Good
PM10
Yesterday Good
OZONE
Current Good
PM2.5
Current Good
OZONE
Wednesday Moderate
PM2.5
Wednesday Good
OZONE
Thursday Moderate
PM2.5
Thursday Good
OZONE

Snow Depth

Station Depth Elevation
No new snow has been reported.

Earthquake Activity

City Distance Mag. Time & Date
No recent earthquake activity has been reported nearby.
Minimum magnitude displayed is 2.5.

Coastal Water Temperatures

Place Temperature
No Stations Reporting

Nearby Weather Stations